BEL9CK EBBR-EYVI
Flight info
| Callsign | BEL9CK |
|---|---|
| Flight time | 1h 57m |
| Altitude | 35000 |
| Route | SPI Y862 KENUM N853 ONUNE DCT TOLGI DCT GILAS DCT DEKUT N858 BOKSU DCT IRKAL |
| Aircraft | A320/M-DE3FGHIJ1LORVWY/HB1 |
Departure
| Time | 2026-05-07 10:19 |
|---|---|
| Airport | Brussels Airport (EBBR) |
Arrival
| Time | 2026-05-07 12:16 |
|---|---|
| Airport | Vilnius International Airport (EYVI) |
| Time | Latitude | Longitude | Altitude | Speed | Heading |
|---|---|---|---|---|---|
| 2026-05-07 09:11 | 50.90404 | 4.48597 | 121 ft | 0 kts | 155° |
| 2026-05-07 10:10 | 50.90417 | 4.48588 | 116 ft | 4 kts | 154° |
| 2026-05-07 10:10 | 50.90441 | 4.48569 | 118 ft | 4 kts | 151° |
| 2026-05-07 10:10 | 50.90464 | 4.48547 | 119 ft | 4 kts | 140° |
| 2026-05-07 10:10 | 50.90480 | 4.48518 | 117 ft | 4 kts | 96° |
| 2026-05-07 10:11 | 50.90480 | 4.48503 | 117 ft | 0 kts | 65° |
| 2026-05-07 10:13 | 50.90485 | 4.48521 | 117 ft | 6 kts | 65° |
| 2026-05-07 10:14 | 50.90515 | 4.48625 | 119 ft | 13 kts | 65° |
| 2026-05-07 10:14 | 50.90540 | 4.48712 | 121 ft | 13 kts | 65° |
| 2026-05-07 10:14 | 50.90584 | 4.48865 | 117 ft | 17 kts | 65° |
| 2026-05-07 10:14 | 50.90635 | 4.49042 | 118 ft | 18 kts | 65° |
| 2026-05-07 10:15 | 50.90691 | 4.49237 | 120 ft | 20 kts | 65° |
| 2026-05-07 10:15 | 50.90751 | 4.49441 | 122 ft | 21 kts | 65° |
| 2026-05-07 10:15 | 50.90814 | 4.49650 | 123 ft | 21 kts | 59° |
| 2026-05-07 10:15 | 50.90912 | 4.49787 | 123 ft | 18 kts | 35° |
| 2026-05-07 10:16 | 50.91019 | 4.49898 | 119 ft | 16 kts | 27° |
| 2026-05-07 10:16 | 50.91036 | 4.49909 | 119 ft | 0 kts | 23° |
| 2026-05-07 10:17 | 50.91044 | 4.49915 | 120 ft | 6 kts | 23° |
| 2026-05-07 10:17 | 50.91100 | 4.49937 | 120 ft | 9 kts | 359° |
| 2026-05-07 10:17 | 50.91138 | 4.49891 | 118 ft | 6 kts | 276° |
| 2026-05-07 10:18 | 50.91121 | 4.49824 | 117 ft | 11 kts | 246° |
| 2026-05-07 10:18 | 50.90999 | 4.49403 | 118 ft | 78 kts | 245° |
| 2026-05-07 10:18 | 50.90687 | 4.48324 | 119 ft | 136 kts | 245° |
| 2026-05-07 10:18 | 50.90229 | 4.46736 | 171 ft | 175 kts | 248° |
| 2026-05-07 10:19 | 50.89732 | 4.44989 | 781 ft | 174 kts | 246° |
| 2026-05-07 10:19 | 50.89232 | 4.43253 | 1467 ft | 173 kts | 245° |
| 2026-05-07 10:19 | 50.88722 | 4.41501 | 2048 ft | 179 kts | 245° |
| 2026-05-07 10:19 | 50.88166 | 4.39602 | 2269 ft | 202 kts | 245° |
| 2026-05-07 10:20 | 50.87540 | 4.37463 | 2500 ft | 226 kts | 245° |
| 2026-05-07 10:20 | 50.86845 | 4.35083 | 2867 ft | 250 kts | 245° |
| 2026-05-07 10:20 | 50.86095 | 4.32498 | 3480 ft | 263 kts | 246° |
| 2026-05-07 10:20 | 50.85334 | 4.29846 | 4321 ft | 266 kts | 241° |
| 2026-05-07 10:21 | 50.84216 | 4.27505 | 5171 ft | 269 kts | 223° |
| 2026-05-07 10:21 | 50.82679 | 4.25828 | 6090 ft | 269 kts | 205° |
| 2026-05-07 10:21 | 50.80882 | 4.24983 | 6953 ft | 271 kts | 187° |
| 2026-05-07 10:21 | 50.78992 | 4.25065 | 7710 ft | 275 kts | 168° |
| 2026-05-07 10:22 | 50.77186 | 4.26101 | 8476 ft | 280 kts | 150° |
| 2026-05-07 10:22 | 50.75655 | 4.28020 | 9230 ft | 284 kts | 132° |
| 2026-05-07 10:22 | 50.74575 | 4.30649 | 9964 ft | 289 kts | 113° |
| 2026-05-07 10:22 | 50.74091 | 4.33748 | 10622 ft | 294 kts | 93° |
| 2026-05-07 10:23 | 50.74266 | 4.36975 | 11293 ft | 298 kts | 79° |
| 2026-05-07 10:23 | 50.74571 | 4.40229 | 11987 ft | 301 kts | 85° |
| 2026-05-07 10:23 | 50.74650 | 4.43547 | 12669 ft | 304 kts | 91° |
| 2026-05-07 10:23 | 50.74485 | 4.46901 | 13342 ft | 308 kts | 98° |
| 2026-05-07 10:24 | 50.74074 | 4.50239 | 13975 ft | 313 kts | 104° |
| 2026-05-07 10:24 | 50.73429 | 4.53631 | 14126 ft | 334 kts | 108° |
| 2026-05-07 10:24 | 50.72699 | 4.57227 | 14250 ft | 353 kts | 108° |
| 2026-05-07 10:24 | 50.71934 | 4.60993 | 14567 ft | 365 kts | 108° |
| 2026-05-07 10:25 | 50.71165 | 4.64840 | 15098 ft | 370 kts | 108° |
| 2026-05-07 10:25 | 50.70408 | 4.68682 | 15657 ft | 373 kts | 108° |
| 2026-05-07 10:25 | 50.69638 | 4.72608 | 16219 ft | 376 kts | 108° |
| 2026-05-07 10:25 | 50.68860 | 4.76571 | 16792 ft | 380 kts | 108° |
| 2026-05-07 10:26 | 50.68073 | 4.80567 | 17358 ft | 383 kts | 108° |
| 2026-05-07 10:26 | 50.67278 | 4.84585 | 17926 ft | 386 kts | 108° |
| 2026-05-07 10:26 | 50.66475 | 4.88636 | 18467 ft | 389 kts | 108° |
| 2026-05-07 10:26 | 50.65659 | 4.92727 | 18966 ft | 392 kts | 108° |
| 2026-05-07 10:27 | 50.64834 | 4.96834 | 19465 ft | 395 kts | 108° |
| 2026-05-07 10:27 | 50.64003 | 5.00971 | 19976 ft | 397 kts | 108° |
| 2026-05-07 10:27 | 50.63163 | 5.05137 | 20467 ft | 400 kts | 108° |
| 2026-05-07 10:27 | 50.62318 | 5.09322 | 20965 ft | 403 kts | 108° |
| 2026-05-07 10:28 | 50.61464 | 5.13540 | 21457 ft | 406 kts | 108° |
| 2026-05-07 10:28 | 50.60604 | 5.17788 | 21924 ft | 408 kts | 108° |
| 2026-05-07 10:28 | 50.59738 | 5.22061 | 22393 ft | 411 kts | 108° |
| 2026-05-07 10:28 | 50.58866 | 5.26366 | 22851 ft | 414 kts | 108° |
| 2026-05-07 10:29 | 50.57988 | 5.30694 | 23298 ft | 417 kts | 108° |
| 2026-05-07 10:29 | 50.57101 | 5.35046 | 23716 ft | 419 kts | 108° |
| 2026-05-07 10:29 | 50.56205 | 5.39425 | 24077 ft | 422 kts | 108° |
| 2026-05-07 10:30 | 50.54392 | 5.48246 | 24787 ft | 426 kts | 108° |
| 2026-05-07 10:30 | 50.53491 | 5.52686 | 25123 ft | 428 kts | 105° |
| 2026-05-07 10:30 | 50.52933 | 5.57220 | 25457 ft | 430 kts | 95° |
| 2026-05-07 10:30 | 50.52896 | 5.61918 | 25779 ft | 432 kts | 84° |
| 2026-05-07 10:31 | 50.53401 | 5.66568 | 26102 ft | 433 kts | 74° |
| 2026-05-07 10:31 | 50.54439 | 5.71014 | 26423 ft | 434 kts | 63° |
| 2026-05-07 10:31 | 50.55856 | 5.75212 | 26754 ft | 436 kts | 61° |
| 2026-05-07 10:31 | 50.57299 | 5.79423 | 27067 ft | 437 kts | 61° |
| 2026-05-07 10:32 | 50.58735 | 5.83649 | 27375 ft | 439 kts | 61° |
| 2026-05-07 10:32 | 50.60176 | 5.87913 | 27682 ft | 441 kts | 61° |
| 2026-05-07 10:32 | 50.61614 | 5.92185 | 27986 ft | 443 kts | 61° |
| 2026-05-07 10:32 | 50.63060 | 5.96489 | 28288 ft | 444 kts | 61° |
| 2026-05-07 10:33 | 50.64484 | 6.00742 | 28571 ft | 446 kts | 62° |
| 2026-05-07 10:33 | 50.65932 | 6.05076 | 28844 ft | 447 kts | 62° |
| 2026-05-07 10:33 | 50.67403 | 6.09481 | 29127 ft | 449 kts | 61° |
| 2026-05-07 10:33 | 50.68857 | 6.13835 | 29419 ft | 449 kts | 62° |
| 2026-05-07 10:34 | 50.70316 | 6.18204 | 29650 ft | 451 kts | 61° |
| 2026-05-07 10:34 | 50.71928 | 6.22450 | 29914 ft | 451 kts | 53° |
| 2026-05-07 10:34 | 50.73921 | 6.26275 | 30132 ft | 452 kts | 45° |
| 2026-05-07 10:34 | 50.76212 | 6.29683 | 30326 ft | 453 kts | 41° |
| 2026-05-07 10:35 | 50.78538 | 6.33046 | 30517 ft | 454 kts | 41° |
| 2026-05-07 10:35 | 50.80826 | 6.36379 | 30783 ft | 453 kts | 42° |
| 2026-05-07 10:35 | 50.83135 | 6.39756 | 31052 ft | 452 kts | 41° |
| 2026-05-07 10:35 | 50.85439 | 6.43132 | 31323 ft | 451 kts | 42° |
| 2026-05-07 10:36 | 50.87739 | 6.46507 | 31581 ft | 451 kts | 42° |
| 2026-05-07 10:36 | 50.90039 | 6.49878 | 31843 ft | 450 kts | 42° |
| 2026-05-07 10:36 | 50.92336 | 6.53248 | 32107 ft | 449 kts | 42° |
| 2026-05-07 10:36 | 50.94625 | 6.56614 | 32370 ft | 449 kts | 42° |
| 2026-05-07 10:37 | 50.96910 | 6.59982 | 32621 ft | 448 kts | 42° |
| 2026-05-07 10:37 | 50.99189 | 6.63346 | 32887 ft | 448 kts | 42° |
| 2026-05-07 10:37 | 51.01465 | 6.66732 | 33141 ft | 447 kts | 45° |
| 2026-05-07 10:37 | 51.03511 | 6.70456 | 33366 ft | 448 kts | 51° |
| 2026-05-07 10:38 | 51.05393 | 6.74405 | 33617 ft | 448 kts | 52° |
| 2026-05-07 10:38 | 51.07272 | 6.78356 | 33862 ft | 448 kts | 51° |
| 2026-05-07 10:38 | 51.09156 | 6.82319 | 34082 ft | 448 kts | 51° |
| 2026-05-07 10:38 | 51.11031 | 6.86271 | 34273 ft | 448 kts | 51° |
| 2026-05-07 10:39 | 51.12908 | 6.90240 | 34445 ft | 449 kts | 52° |
| 2026-05-07 10:39 | 51.14780 | 6.94214 | 34639 ft | 449 kts | 52° |
| 2026-05-07 10:39 | 51.16654 | 6.98198 | 34807 ft | 449 kts | 52° |
| 2026-05-07 10:39 | 51.18522 | 7.02181 | 34987 ft | 449 kts | 52° |
| 2026-05-07 10:40 | 51.22260 | 7.10160 | 35050 ft | 449 kts | 52° |
| 2026-05-07 10:40 | 51.25999 | 7.18145 | 35047 ft | 450 kts | 52° |
| 2026-05-07 10:41 | 51.29741 | 7.26177 | 35045 ft | 451 kts | 52° |
| 2026-05-07 10:41 | 51.33457 | 7.34191 | 35039 ft | 452 kts | 52° |
| 2026-05-07 10:42 | 51.36975 | 7.42559 | 35040 ft | 451 kts | 63° |
| 2026-05-07 10:42 | 51.39242 | 7.51844 | 35060 ft | 451 kts | 69° |
| 2026-05-07 10:43 | 51.41390 | 7.61286 | 35052 ft | 451 kts | 69° |
| 2026-05-07 10:43 | 51.43529 | 7.70715 | 35050 ft | 451 kts | 70° |
| 2026-05-07 10:44 | 51.45660 | 7.80182 | 35044 ft | 451 kts | 70° |
| 2026-05-07 10:44 | 51.47784 | 7.89667 | 35036 ft | 452 kts | 70° |
| 2026-05-07 10:45 | 51.49901 | 7.99160 | 35032 ft | 452 kts | 70° |
| 2026-05-07 10:45 | 51.52015 | 8.08676 | 35028 ft | 452 kts | 70° |
| 2026-05-07 10:46 | 51.54118 | 8.18195 | 35027 ft | 452 kts | 70° |
| 2026-05-07 10:46 | 51.56213 | 8.27720 | 35021 ft | 453 kts | 70° |
| 2026-05-07 10:47 | 51.58306 | 8.37263 | 35011 ft | 453 kts | 70° |
| 2026-05-07 10:47 | 51.60380 | 8.46781 | 35014 ft | 454 kts | 70° |
| 2026-05-07 10:48 | 51.62461 | 8.56380 | 35015 ft | 454 kts | 71° |
| 2026-05-07 10:48 | 51.64533 | 8.65985 | 35018 ft | 454 kts | 71° |
| 2026-05-07 10:49 | 51.66600 | 8.75595 | 35015 ft | 454 kts | 71° |
| 2026-05-07 10:49 | 51.68656 | 8.85230 | 35011 ft | 455 kts | 71° |
| 2026-05-07 10:50 | 51.70715 | 8.94883 | 35009 ft | 456 kts | 71° |
| 2026-05-07 10:50 | 51.72774 | 9.04538 | 35011 ft | 456 kts | 71° |
| 2026-05-07 10:51 | 51.74813 | 9.14214 | 35016 ft | 456 kts | 71° |
| 2026-05-07 10:51 | 51.76849 | 9.23897 | 35009 ft | 455 kts | 71° |
| 2026-05-07 10:52 | 51.78872 | 9.33595 | 35008 ft | 455 kts | 71° |
| 2026-05-07 10:52 | 51.80850 | 9.43126 | 35006 ft | 455 kts | 72° |
| 2026-05-07 10:53 | 51.82849 | 9.52837 | 35010 ft | 456 kts | 72° |
| 2026-05-07 10:53 | 51.84735 | 9.62616 | 35011 ft | 455 kts | 73° |
| 2026-05-07 10:54 | 51.86491 | 9.72380 | 35012 ft | 455 kts | 74° |
| 2026-05-07 10:54 | 51.88249 | 9.82216 | 35000 ft | 455 kts | 74° |
| 2026-05-07 10:55 | 51.90030 | 9.92051 | 35004 ft | 455 kts | 74° |
| 2026-05-07 10:55 | 51.91818 | 10.01903 | 35004 ft | 455 kts | 74° |
| 2026-05-07 10:56 | 51.93596 | 10.11747 | 35003 ft | 455 kts | 74° |
| 2026-05-07 10:56 | 51.95361 | 10.21608 | 35006 ft | 455 kts | 74° |
| 2026-05-07 10:57 | 51.97112 | 10.31487 | 35002 ft | 455 kts | 75° |
| 2026-05-07 10:57 | 51.98854 | 10.41369 | 35000 ft | 456 kts | 75° |
| 2026-05-07 10:58 | 52.00592 | 10.51260 | 35005 ft | 456 kts | 75° |
| 2026-05-07 10:58 | 52.02316 | 10.61099 | 35014 ft | 456 kts | 75° |
| 2026-05-07 10:59 | 52.04039 | 10.70997 | 35028 ft | 456 kts | 75° |
| 2026-05-07 10:59 | 52.05751 | 10.80907 | 35032 ft | 455 kts | 75° |
| 2026-05-07 11:00 | 52.07458 | 10.90836 | 35018 ft | 455 kts | 75° |
| 2026-05-07 11:00 | 52.09153 | 11.00764 | 35015 ft | 455 kts | 75° |
| 2026-05-07 11:01 | 52.10833 | 11.10682 | 35015 ft | 455 kts | 75° |
| 2026-05-07 11:01 | 52.12230 | 11.18929 | 35014 ft | 455 kts | 75° |
| 2026-05-07 11:02 | 52.13908 | 11.28855 | 35015 ft | 455 kts | 75° |
| 2026-05-07 11:02 | 52.15572 | 11.38793 | 35001 ft | 455 kts | 76° |
| 2026-05-07 11:03 | 52.17220 | 11.48735 | 35008 ft | 455 kts | 76° |
| 2026-05-07 11:03 | 52.18861 | 11.58680 | 35008 ft | 455 kts | 76° |
| 2026-05-07 11:04 | 52.20493 | 11.68631 | 35011 ft | 454 kts | 76° |
| 2026-05-07 11:04 | 52.22119 | 11.78589 | 35003 ft | 454 kts | 76° |
| 2026-05-07 11:05 | 52.23742 | 11.88554 | 35008 ft | 454 kts | 76° |
| 2026-05-07 11:05 | 52.25354 | 11.98525 | 34995 ft | 455 kts | 76° |
| 2026-05-07 11:06 | 52.26954 | 12.08515 | 34994 ft | 456 kts | 76° |
| 2026-05-07 11:06 | 52.28540 | 12.18468 | 34983 ft | 456 kts | 76° |
| 2026-05-07 11:07 | 52.30134 | 12.28513 | 34995 ft | 456 kts | 76° |
| 2026-05-07 11:07 | 52.31715 | 12.38553 | 35000 ft | 456 kts | 76° |
| 2026-05-07 11:08 | 52.33291 | 12.48602 | 34985 ft | 456 kts | 77° |
| 2026-05-07 11:08 | 52.34858 | 12.58676 | 34997 ft | 458 kts | 77° |
| 2026-05-07 11:09 | 52.36420 | 12.68774 | 34992 ft | 458 kts | 77° |
| 2026-05-07 11:09 | 52.37983 | 12.78897 | 35004 ft | 459 kts | 77° |
| 2026-05-07 11:10 | 52.39533 | 12.89042 | 35008 ft | 459 kts | 77° |
| 2026-05-07 11:10 | 52.41070 | 12.99198 | 35009 ft | 459 kts | 77° |
| 2026-05-07 11:11 | 52.42602 | 13.09362 | 34994 ft | 460 kts | 78° |
| 2026-05-07 11:11 | 52.44138 | 13.19563 | 35010 ft | 461 kts | 78° |
| 2026-05-07 11:12 | 52.45650 | 13.29718 | 35014 ft | 461 kts | 79° |
| 2026-05-07 11:12 | 52.47155 | 13.39932 | 35016 ft | 461 kts | 79° |
| 2026-05-07 11:13 | 52.48659 | 13.50138 | 35008 ft | 460 kts | 79° |
| 2026-05-07 11:13 | 52.50150 | 13.60351 | 34989 ft | 461 kts | 80° |
| 2026-05-07 11:14 | 52.51637 | 13.70583 | 34993 ft | 461 kts | 80° |
| 2026-05-07 11:14 | 52.53113 | 13.80834 | 34997 ft | 462 kts | 80° |
| 2026-05-07 11:15 | 52.54585 | 13.91124 | 35001 ft | 462 kts | 80° |
| 2026-05-07 11:15 | 52.56047 | 14.01392 | 35000 ft | 461 kts | 80° |
| 2026-05-07 11:16 | 52.57491 | 14.11598 | 35000 ft | 461 kts | 80° |
| 2026-05-07 11:16 | 52.58942 | 14.21957 | 34987 ft | 462 kts | 81° |
| 2026-05-07 11:17 | 52.60368 | 14.32200 | 34999 ft | 462 kts | 81° |
| 2026-05-07 11:17 | 52.61789 | 14.42524 | 35001 ft | 463 kts | 81° |
| 2026-05-07 11:18 | 52.63247 | 14.52839 | 35001 ft | 464 kts | 77° |
| 2026-05-07 11:18 | 52.65307 | 14.62954 | 35011 ft | 466 kts | 74° |
| 2026-05-07 11:19 | 52.67380 | 14.73086 | 35008 ft | 466 kts | 75° |
| 2026-05-07 11:19 | 52.69436 | 14.83207 | 35007 ft | 466 kts | 75° |
| 2026-05-07 11:20 | 52.71482 | 14.93331 | 35010 ft | 466 kts | 75° |
| 2026-05-07 11:20 | 52.73522 | 15.03469 | 35010 ft | 466 kts | 75° |
| 2026-05-07 11:21 | 52.75541 | 15.13554 | 35017 ft | 466 kts | 75° |
| 2026-05-07 11:21 | 52.77563 | 15.23728 | 35018 ft | 466 kts | 75° |
| 2026-05-07 11:22 | 52.79568 | 15.33913 | 34993 ft | 466 kts | 75° |
| 2026-05-07 11:22 | 52.81581 | 15.44122 | 34999 ft | 467 kts | 75° |
| 2026-05-07 11:23 | 52.83590 | 15.54348 | 35003 ft | 468 kts | 75° |
| 2026-05-07 11:23 | 52.85594 | 15.64593 | 35006 ft | 468 kts | 76° |
| 2026-05-07 11:24 | 52.87585 | 15.74853 | 35007 ft | 468 kts | 76° |
| 2026-05-07 11:24 | 52.89563 | 15.85115 | 35010 ft | 468 kts | 76° |
| 2026-05-07 11:25 | 52.91528 | 15.95401 | 34991 ft | 469 kts | 76° |
| 2026-05-07 11:25 | 52.93493 | 16.05714 | 34995 ft | 470 kts | 76° |
| 2026-05-07 11:26 | 52.95443 | 16.15975 | 35000 ft | 470 kts | 76° |
| 2026-05-07 11:26 | 52.97394 | 16.26333 | 35003 ft | 471 kts | 76° |
| 2026-05-07 11:27 | 52.99339 | 16.36710 | 35003 ft | 471 kts | 76° |
| 2026-05-07 11:27 | 53.01281 | 16.47100 | 34976 ft | 471 kts | 76° |
| 2026-05-07 11:28 | 53.03214 | 16.57498 | 34990 ft | 472 kts | 76° |
| 2026-05-07 11:28 | 53.05138 | 16.67932 | 34995 ft | 472 kts | 77° |
| 2026-05-07 11:29 | 53.07054 | 16.78381 | 34996 ft | 472 kts | 77° |
| 2026-05-07 11:29 | 53.08959 | 16.88842 | 34999 ft | 473 kts | 77° |
| 2026-05-07 11:30 | 53.10858 | 16.99305 | 34997 ft | 473 kts | 77° |
| 2026-05-07 11:30 | 53.13079 | 17.09556 | 34968 ft | 475 kts | 71° |
| 2026-05-07 11:31 | 53.15544 | 17.19788 | 34977 ft | 476 kts | 71° |
| 2026-05-07 11:31 | 53.18007 | 17.30061 | 34983 ft | 477 kts | 72° |
| 2026-05-07 11:32 | 53.21686 | 17.45502 | 34993 ft | 478 kts | 72° |
| 2026-05-07 11:33 | 53.24131 | 17.55818 | 34992 ft | 478 kts | 72° |
| 2026-05-07 11:33 | 53.26564 | 17.66151 | 34993 ft | 478 kts | 72° |
| 2026-05-07 11:34 | 53.28992 | 17.76505 | 34977 ft | 479 kts | 72° |
| 2026-05-07 11:34 | 53.31395 | 17.86818 | 34980 ft | 480 kts | 72° |
| 2026-05-07 11:35 | 53.33813 | 17.97234 | 34982 ft | 481 kts | 72° |
| 2026-05-07 11:35 | 53.36232 | 18.07676 | 34988 ft | 481 kts | 72° |
| 2026-05-07 11:36 | 53.38631 | 18.18139 | 34991 ft | 481 kts | 72° |
| 2026-05-07 11:36 | 53.41018 | 18.28640 | 34988 ft | 482 kts | 72° |
| 2026-05-07 11:37 | 53.43393 | 18.39162 | 34973 ft | 483 kts | 73° |
| 2026-05-07 11:37 | 53.45752 | 18.49645 | 34967 ft | 484 kts | 73° |
| 2026-05-07 11:38 | 53.48131 | 18.60222 | 34973 ft | 485 kts | 73° |
| 2026-05-07 11:38 | 53.50505 | 18.70826 | 34978 ft | 485 kts | 73° |
| 2026-05-07 11:39 | 53.52850 | 18.81457 | 34987 ft | 485 kts | 73° |
| 2026-05-07 11:39 | 53.55060 | 18.92161 | 34988 ft | 485 kts | 75° |
| 2026-05-07 11:40 | 53.57192 | 19.02909 | 34953 ft | 485 kts | 75° |
| 2026-05-07 11:40 | 53.59335 | 19.13681 | 34963 ft | 486 kts | 75° |
| 2026-05-07 11:41 | 53.61509 | 19.24467 | 34965 ft | 486 kts | 75° |
| 2026-05-07 11:41 | 53.63684 | 19.35263 | 34970 ft | 487 kts | 75° |
| 2026-05-07 11:42 | 53.65839 | 19.46077 | 34974 ft | 487 kts | 75° |
| 2026-05-07 11:42 | 53.67965 | 19.56847 | 34980 ft | 487 kts | 75° |
| 2026-05-07 11:43 | 53.70093 | 19.67701 | 34954 ft | 488 kts | 75° |
| 2026-05-07 11:43 | 53.72214 | 19.78590 | 34953 ft | 488 kts | 75° |
| 2026-05-07 11:44 | 53.74336 | 19.89491 | 34960 ft | 489 kts | 75° |
| 2026-05-07 11:44 | 53.76456 | 20.00419 | 34962 ft | 489 kts | 75° |
| 2026-05-07 11:45 | 53.78556 | 20.11351 | 34961 ft | 489 kts | 76° |
| 2026-05-07 11:45 | 53.80640 | 20.22307 | 34971 ft | 489 kts | 76° |
| 2026-05-07 11:46 | 53.82721 | 20.33273 | 34936 ft | 490 kts | 75° |
| 2026-05-07 11:46 | 53.84794 | 20.44250 | 34950 ft | 490 kts | 76° |
| 2026-05-07 11:47 | 53.86853 | 20.55265 | 34950 ft | 490 kts | 76° |
| 2026-05-07 11:47 | 53.88902 | 20.66217 | 34953 ft | 491 kts | 76° |
| 2026-05-07 11:48 | 53.90968 | 20.77314 | 34956 ft | 491 kts | 76° |
| 2026-05-07 11:48 | 53.92995 | 20.88282 | 34952 ft | 490 kts | 76° |
| 2026-05-07 11:49 | 53.95027 | 20.99340 | 34963 ft | 491 kts | 76° |
| 2026-05-07 11:49 | 53.97042 | 21.10411 | 34945 ft | 491 kts | 76° |
| 2026-05-07 11:50 | 53.99044 | 21.21501 | 34945 ft | 491 kts | 76° |
| 2026-05-07 11:50 | 54.01043 | 21.32599 | 34943 ft | 491 kts | 76° |
| 2026-05-07 11:51 | 54.03040 | 21.43720 | 34945 ft | 491 kts | 76° |
| 2026-05-07 11:51 | 54.05021 | 21.54856 | 34946 ft | 491 kts | 76° |
| 2026-05-07 11:52 | 54.06987 | 21.65989 | 34918 ft | 491 kts | 76° |
| 2026-05-07 11:52 | 54.08624 | 21.75249 | 34926 ft | 491 kts | 76° |
| 2026-05-07 11:53 | 54.10593 | 21.86395 | 34927 ft | 491 kts | 76° |
| 2026-05-07 11:53 | 54.12857 | 21.99377 | 34931 ft | 491 kts | 77° |
| 2026-05-07 11:54 | 54.14474 | 22.08747 | 34933 ft | 491 kts | 77° |
| 2026-05-07 11:54 | 54.16386 | 22.19856 | 34871 ft | 492 kts | 77° |
| 2026-05-07 11:54 | 54.17354 | 22.25499 | 33823 ft | 501 kts | 77° |
| 2026-05-07 11:55 | 54.18332 | 22.31244 | 32947 ft | 503 kts | 77° |
| 2026-05-07 11:55 | 54.19297 | 22.36921 | 32494 ft | 495 kts | 77° |
| 2026-05-07 11:55 | 54.20252 | 22.42542 | 31911 ft | 491 kts | 77° |
| 2026-05-07 11:55 | 54.21196 | 22.48118 | 31328 ft | 487 kts | 77° |
| 2026-05-07 11:56 | 54.22126 | 22.53649 | 30788 ft | 483 kts | 77° |
| 2026-05-07 11:56 | 54.23044 | 22.59148 | 30233 ft | 480 kts | 77° |
| 2026-05-07 11:56 | 54.23956 | 22.64618 | 29641 ft | 476 kts | 77° |
| 2026-05-07 11:56 | 54.24858 | 22.70032 | 29101 ft | 471 kts | 77° |
| 2026-05-07 11:57 | 54.25749 | 22.75390 | 28573 ft | 466 kts | 77° |
| 2026-05-07 11:57 | 54.26630 | 22.80703 | 28043 ft | 462 kts | 77° |
| 2026-05-07 11:57 | 54.27498 | 22.85967 | 27532 ft | 457 kts | 77° |
| 2026-05-07 11:57 | 54.28354 | 22.91183 | 27022 ft | 453 kts | 77° |
| 2026-05-07 11:58 | 54.29200 | 22.96366 | 26520 ft | 448 kts | 77° |
| 2026-05-07 11:58 | 54.30032 | 23.01474 | 26038 ft | 444 kts | 76° |
| 2026-05-07 11:58 | 54.30859 | 23.06549 | 25583 ft | 440 kts | 76° |
| 2026-05-07 11:58 | 54.31660 | 23.11520 | 25126 ft | 436 kts | 77° |
| 2026-05-07 11:59 | 54.32457 | 23.16580 | 24669 ft | 433 kts | 77° |
| 2026-05-07 11:59 | 54.33218 | 23.21479 | 24222 ft | 430 kts | 77° |
| 2026-05-07 11:59 | 54.33983 | 23.26425 | 23762 ft | 428 kts | 77° |
| 2026-05-07 11:59 | 54.34742 | 23.31357 | 23291 ft | 426 kts | 77° |
| 2026-05-07 12:00 | 54.35494 | 23.36246 | 22808 ft | 422 kts | 77° |
| 2026-05-07 12:00 | 54.36241 | 23.41095 | 22355 ft | 418 kts | 77° |
| 2026-05-07 12:00 | 54.36978 | 23.45887 | 21900 ft | 415 kts | 77° |
| 2026-05-07 12:00 | 54.37713 | 23.50668 | 21435 ft | 411 kts | 77° |
| 2026-05-07 12:01 | 54.38440 | 23.55393 | 20980 ft | 409 kts | 77° |
| 2026-05-07 12:01 | 54.39159 | 23.60091 | 20486 ft | 406 kts | 77° |
| 2026-05-07 12:01 | 54.39872 | 23.64764 | 20055 ft | 403 kts | 77° |
| 2026-05-07 12:01 | 54.40577 | 23.69406 | 19593 ft | 402 kts | 77° |
| 2026-05-07 12:02 | 54.41280 | 23.74040 | 19124 ft | 400 kts | 77° |
| 2026-05-07 12:02 | 54.41975 | 23.78652 | 18669 ft | 398 kts | 77° |
| 2026-05-07 12:02 | 54.42666 | 23.83258 | 18215 ft | 397 kts | 77° |
| 2026-05-07 12:02 | 54.43351 | 23.87841 | 17725 ft | 396 kts | 77° |
| 2026-05-07 12:03 | 54.44030 | 23.92402 | 17281 ft | 392 kts | 77° |
| 2026-05-07 12:03 | 54.44703 | 23.96926 | 16853 ft | 390 kts | 78° |
| 2026-05-07 12:03 | 54.45368 | 24.01424 | 16403 ft | 387 kts | 78° |
| 2026-05-07 12:03 | 54.46031 | 24.05899 | 15967 ft | 385 kts | 78° |
| 2026-05-07 12:04 | 54.46678 | 24.10283 | 15550 ft | 383 kts | 78° |
| 2026-05-07 12:04 | 54.47328 | 24.14713 | 15133 ft | 381 kts | 78° |
| 2026-05-07 12:04 | 54.47977 | 24.19129 | 14697 ft | 381 kts | 78° |
| 2026-05-07 12:04 | 54.48628 | 24.23544 | 14271 ft | 379 kts | 77° |
| 2026-05-07 12:05 | 54.49273 | 24.27927 | 13813 ft | 377 kts | 78° |
| 2026-05-07 12:05 | 54.49912 | 24.32285 | 13379 ft | 374 kts | 78° |
| 2026-05-07 12:05 | 54.50544 | 24.36614 | 12946 ft | 371 kts | 78° |
| 2026-05-07 12:05 | 54.51165 | 24.40900 | 12517 ft | 367 kts | 78° |
| 2026-05-07 12:06 | 54.51775 | 24.45142 | 12160 ft | 361 kts | 78° |
| 2026-05-07 12:06 | 54.52368 | 24.49267 | 12015 ft | 349 kts | 78° |
| 2026-05-07 12:06 | 54.52946 | 24.53260 | 11889 ft | 338 kts | 78° |
| 2026-05-07 12:06 | 54.53507 | 24.57132 | 11740 ft | 328 kts | 78° |
| 2026-05-07 12:07 | 54.54050 | 24.60901 | 11485 ft | 322 kts | 78° |
| 2026-05-07 12:07 | 54.54586 | 24.64649 | 11152 ft | 320 kts | 79° |
| 2026-05-07 12:07 | 54.55113 | 24.68364 | 10816 ft | 319 kts | 79° |
| 2026-05-07 12:07 | 54.55636 | 24.72058 | 10500 ft | 317 kts | 78° |
| 2026-05-07 12:08 | 54.56159 | 24.75750 | 10151 ft | 316 kts | 78° |
| 2026-05-07 12:08 | 54.56676 | 24.79405 | 9850 ft | 310 kts | 78° |
| 2026-05-07 12:08 | 54.57177 | 24.82949 | 9461 ft | 298 kts | 79° |
| 2026-05-07 12:08 | 54.57659 | 24.86367 | 9063 ft | 288 kts | 79° |
| 2026-05-07 12:09 | 54.57994 | 24.89651 | 8684 ft | 275 kts | 93° |
| 2026-05-07 12:09 | 54.57740 | 24.92838 | 8299 ft | 263 kts | 114° |
| 2026-05-07 12:09 | 54.56955 | 24.95576 | 7794 ft | 249 kts | 134° |
| 2026-05-07 12:09 | 54.55795 | 24.97662 | 7303 ft | 235 kts | 150° |
| 2026-05-07 12:10 | 54.54444 | 24.99156 | 6809 ft | 228 kts | 156° |
| 2026-05-07 12:10 | 54.53096 | 25.00581 | 6331 ft | 226 kts | 156° |
| 2026-05-07 12:10 | 54.51786 | 25.01978 | 6003 ft | 219 kts | 156° |
| 2026-05-07 12:10 | 54.50496 | 25.03351 | 5692 ft | 218 kts | 155° |
| 2026-05-07 12:11 | 54.49252 | 25.04858 | 5386 ft | 221 kts | 144° |
| 2026-05-07 12:11 | 54.48226 | 25.06862 | 5083 ft | 227 kts | 129° |
| 2026-05-07 12:11 | 54.47496 | 25.09304 | 4792 ft | 232 kts | 116° |
| 2026-05-07 12:11 | 54.46904 | 25.11888 | 4489 ft | 232 kts | 111° |
| 2026-05-07 12:12 | 54.46793 | 25.14671 | 4123 ft | 238 kts | 78° |
| 2026-05-07 12:12 | 54.47544 | 25.17127 | 3751 ft | 230 kts | 43° |
| 2026-05-07 12:12 | 54.48836 | 25.18523 | 3502 ft | 213 kts | 18° |
| 2026-05-07 12:12 | 54.50186 | 25.19446 | 3193 ft | 205 kts | 19° |
| 2026-05-07 12:13 | 54.51501 | 25.20351 | 2919 ft | 202 kts | 18° |
| 2026-05-07 12:13 | 54.52781 | 25.21233 | 2654 ft | 193 kts | 19° |
| 2026-05-07 12:13 | 54.53985 | 25.22064 | 2410 ft | 180 kts | 18° |
| 2026-05-07 12:13 | 54.55074 | 25.22817 | 2185 ft | 163 kts | 18° |
| 2026-05-07 12:14 | 54.56091 | 25.23520 | 1980 ft | 152 kts | 16° |
| 2026-05-07 12:14 | 54.57071 | 25.24184 | 1769 ft | 148 kts | 19° |
| 2026-05-07 12:14 | 54.58004 | 25.24841 | 1549 ft | 142 kts | 16° |
| 2026-05-07 12:14 | 54.58926 | 25.25478 | 1343 ft | 142 kts | 18° |
| 2026-05-07 12:15 | 54.59831 | 25.26116 | 1170 ft | 141 kts | 18° |
| 2026-05-07 12:15 | 54.60727 | 25.26727 | 989 ft | 140 kts | 18° |
| 2026-05-07 12:15 | 54.61629 | 25.27348 | 787 ft | 141 kts | 20° |
| 2026-05-07 12:15 | 54.62531 | 25.27971 | 624 ft | 139 kts | 18° |
| 2026-05-07 12:16 | 54.63320 | 25.28512 | 615 ft | 98 kts | 22° |
| 2026-05-07 12:16 | 54.63791 | 25.28838 | 635 ft | 48 kts | 22° |
| 2026-05-07 12:16 | 54.64013 | 25.28990 | 644 ft | 28 kts | 21° |
| 2026-05-07 12:16 | 54.64185 | 25.29108 | 651 ft | 25 kts | 22° |
| 2026-05-07 12:17 | 54.64340 | 25.29215 | 655 ft | 24 kts | 21° |
| 2026-05-07 12:17 | 54.64461 | 25.29241 | 657 ft | 16 kts | 325° |
| 2026-05-07 12:17 | 54.64519 | 25.29062 | 657 ft | 17 kts | 297° |
| 2026-05-07 12:17 | 54.64558 | 25.28907 | 657 ft | 13 kts | 282° |
| 2026-05-07 12:18 | 54.64548 | 25.28751 | 657 ft | 13 kts | 259° |
| 2026-05-07 12:18 | 54.64528 | 25.28624 | 653 ft | 11 kts | 246° |
| 2026-05-07 12:18 | 54.64496 | 25.28484 | 647 ft | 15 kts | 255° |
| 2026-05-07 12:18 | 54.64474 | 25.28350 | 640 ft | 9 kts | 247° |
| 2026-05-07 12:19 | 54.64457 | 25.28303 | 642 ft | 2 kts | 237° |
| 2026-05-07 12:19 | 54.64451 | 25.28232 | 639 ft | 7 kts | 269° |
| 2026-05-07 12:19 | 54.64451 | 25.28194 | 637 ft | 1 kts | 270° |
| 2026-05-07 12:19 | 54.64451 | 25.28186 | 637 ft | 0 kts | 270° |
| 2026-05-07 12:20 | 54.64451 | 25.28183 | 637 ft | 0 kts | 270° |